sensor_id;sensor_type;location;lat;lon;timestamp;P1;durP1;ratioP1;P2;durP2;ratioP2
19339;SDS011;9804;52.350;6.684;2024-02-21T00:00:03;40.95;;;19.20;;
19339;SDS011;9804;52.350;6.684;2024-02-21T00:02:30;45.88;;;19.65;;
19339;SDS011;9804;52.350;6.684;2024-02-21T00:04:55;43.25;;;19.23;;
19339;SDS011;9804;52.350;6.684;2024-02-21T00:07:21;45.05;;;18.83;;
19339;SDS011;9804;52.350;6.684;2024-02-21T00:09:46;37.03;;;18.67;;
19339;SDS011;9804;52.350;6.684;2024-02-21T00:12:11;39.13;;;18.35;;
19339;SDS011;9804;52.350;6.684;2024-02-21T00:14:39;40.17;;;18.17;;
19339;SDS011;9804;52.350;6.684;2024-02-21T00:17:05;38.58;;;18.65;;
19339;SDS011;9804;52.350;6.684;2024-02-21T00:19:31;43.72;;;18.20;;
19339;SDS011;9804;52.350;6.684;2024-02-21T00:21:56;42.80;;;19.55;;
19339;SDS011;9804;52.350;6.684;2024-02-21T00:24:22;35.63;;;17.95;;
19339;SDS011;9804;52.350;6.684;2024-02-21T00:26:47;39.78;;;19.15;;
19339;SDS011;9804;52.350;6.684;2024-02-21T00:29:12;43.58;;;18.02;;
19339;SDS011;9804;52.350;6.684;2024-02-21T00:31:38;38.75;;;18.92;;
19339;SDS011;9804;52.350;6.684;2024-02-21T00:34:03;41.25;;;18.20;;
19339;SDS011;9804;52.350;6.684;2024-02-21T00:36:29;39.70;;;18.55;;
19339;SDS011;9804;52.350;6.684;2024-02-21T00:38:54;38.10;;;17.52;;
19339;SDS011;9804;52.350;6.684;2024-02-21T00:41:19;39.75;;;17.63;;
19339;SDS011;9804;52.350;6.684;2024-02-21T00:43:45;37.47;;;18.38;;
19339;SDS011;9804;52.350;6.684;2024-02-21T00:46:10;41.53;;;18.45;;
19339;SDS011;9804;52.350;6.684;2024-02-21T00:48:36;43.40;;;18.23;;
19339;SDS011;9804;52.350;6.684;2024-02-21T00:51:01;39.47;;;17.80;;
19339;SDS011;9804;52.350;6.684;2024-02-21T00:53:27;37.78;;;16.77;;
19339;SDS011;9804;52.350;6.684;2024-02-21T00:55:52;39.65;;;17.60;;
19339;SDS011;9804;52.350;6.684;2024-02-21T00:58:18;38.78;;;17.63;;
19339;SDS011;9804;52.350;6.684;2024-02-21T01:00:43;35.58;;;17.02;;
19339;SDS011;9804;52.350;6.684;2024-02-21T01:03:08;39.28;;;17.15;;
19339;SDS011;9804;52.350;6.684;2024-02-21T01:05:34;37.10;;;17.42;;
19339;SDS011;9804;52.350;6.684;2024-02-21T01:07:59;33.35;;;16.98;;
19339;SDS011;9804;52.350;6.684;2024-02-21T01:10:25;35.63;;;17.63;;
19339;SDS011;9804;52.350;6.684;2024-02-21T01:12:50;33.00;;;15.95;;
19339;SDS011;9804;52.350;6.684;2024-02-21T01:15:16;33.10;;;16.13;;
19339;SDS011;9804;52.350;6.684;2024-02-21T01:17:41;32.05;;;15.98;;
19339;SDS011;9804;52.350;6.684;2024-02-21T01:20:07;30.63;;;15.50;;
19339;SDS011;9804;52.350;6.684;2024-02-21T01:22:33;36.40;;;15.85;;
19339;SDS011;9804;52.350;6.684;2024-02-21T01:24:58;34.80;;;16.63;;
19339;SDS011;9804;52.350;6.684;2024-02-21T01:27:24;44.53;;;18.20;;
19339;SDS011;9804;52.350;6.684;2024-02-21T01:29:49;37.95;;;16.13;;
19339;SDS011;9804;52.350;6.684;2024-02-21T01:32:15;30.75;;;14.68;;
19339;SDS011;9804;52.350;6.684;2024-02-21T01:34:41;29.80;;;15.57;;
19339;SDS011;9804;52.350;6.684;2024-02-21T01:37:06;30.98;;;15.13;;
19339;SDS011;9804;52.350;6.684;2024-02-21T01:39:32;28.08;;;14.55;;
19339;SDS011;9804;52.350;6.684;2024-02-21T01:41:58;26.83;;;14.52;;
19339;SDS011;9804;52.350;6.684;2024-02-21T01:44:24;28.20;;;14.35;;
19339;SDS011;9804;52.350;6.684;2024-02-21T01:46:50;26.88;;;14.40;;
19339;SDS011;9804;52.350;6.684;2024-02-21T01:49:17;33.30;;;16.45;;
19339;SDS011;9804;52.350;6.684;2024-02-21T01:51:42;33.97;;;15.77;;
19339;SDS011;9804;52.350;6.684;2024-02-21T01:54:08;32.08;;;14.75;;
19339;SDS011;9804;52.350;6.684;2024-02-21T01:56:35;33.60;;;15.43;;
19339;SDS011;9804;52.350;6.684;2024-02-21T01:59:00;30.55;;;15.48;;
19339;SDS011;9804;52.350;6.684;2024-02-21T02:01:26;31.95;;;15.38;;
19339;SDS011;9804;52.350;6.684;2024-02-21T02:03:51;31.13;;;14.95;;
19339;SDS011;9804;52.350;6.684;2024-02-21T02:06:17;26.98;;;14.85;;
19339;SDS011;9804;52.350;6.684;2024-02-21T02:08:43;36.95;;;15.70;;
19339;SDS011;9804;52.350;6.684;2024-02-21T02:11:09;32.13;;;15.05;;
19339;SDS011;9804;52.350;6.684;2024-02-21T02:13:35;28.60;;;16.10;;
19339;SDS011;9804;52.350;6.684;2024-02-21T02:16:00;31.27;;;15.63;;
19339;SDS011;9804;52.350;6.684;2024-02-21T02:18:26;30.77;;;15.07;;
19339;SDS011;9804;52.350;6.684;2024-02-21T02:20:51;29.95;;;15.52;;
19339;SDS011;9804;52.350;6.684;2024-02-21T02:23:30;29.25;;;15.27;;
19339;SDS011;9804;52.350;6.684;2024-02-21T02:25:57;33.67;;;15.15;;
19339;SDS011;9804;52.350;6.684;2024-02-21T02:28:22;30.25;;;14.98;;
19339;SDS011;9804;52.350;6.684;2024-02-21T02:30:48;28.88;;;14.80;;
19339;SDS011;9804;52.350;6.684;2024-02-21T02:33:14;31.05;;;14.27;;
19339;SDS011;9804;52.350;6.684;2024-02-21T02:35:40;30.88;;;14.82;;
19339;SDS011;9804;52.350;6.684;2024-02-21T02:38:05;31.70;;;15.85;;
19339;SDS011;9804;52.350;6.684;2024-02-21T02:40:33;26.55;;;14.38;;
19339;SDS011;9804;52.350;6.684;2024-02-21T02:42:59;30.15;;;14.77;;
19339;SDS011;9804;52.350;6.684;2024-02-21T02:45:24;33.45;;;14.95;;
19339;SDS011;9804;52.350;6.684;2024-02-21T02:47:51;29.17;;;14.88;;
19339;SDS011;9804;52.350;6.684;2024-02-21T02:50:19;32.20;;;14.63;;
19339;SDS011;9804;52.350;6.684;2024-02-21T02:52:44;33.72;;;14.95;;
19339;SDS011;9804;52.350;6.684;2024-02-21T02:55:10;31.77;;;15.68;;
19339;SDS011;9804;52.350;6.684;2024-02-21T02:57:36;33.70;;;16.35;;
19339;SDS011;9804;52.350;6.684;2024-02-21T03:00:01;30.23;;;14.55;;
19339;SDS011;9804;52.350;6.684;2024-02-21T03:02:27;30.08;;;14.77;;
19339;SDS011;9804;52.350;6.684;2024-02-21T03:04:53;38.38;;;15.82;;
19339;SDS011;9804;52.350;6.684;2024-02-21T03:07:19;34.95;;;14.93;;
19339;SDS011;9804;52.350;6.684;2024-02-21T03:09:45;31.58;;;15.20;;
19339;SDS011;9804;52.350;6.684;2024-02-21T03:12:10;32.50;;;14.73;;
19339;SDS011;9804;52.350;6.684;2024-02-21T03:14:37;33.65;;;15.60;;
19339;SDS011;9804;52.350;6.684;2024-02-21T03:17:02;26.88;;;15.23;;
19339;SDS011;9804;52.350;6.684;2024-02-21T03:19:28;33.60;;;15.75;;
19339;SDS011;9804;52.350;6.684;2024-02-21T03:21:55;26.58;;;14.38;;
19339;SDS011;9804;52.350;6.684;2024-02-21T03:24:21;31.17;;;14.75;;
19339;SDS011;9804;52.350;6.684;2024-02-21T03:26:46;33.67;;;14.60;;
19339;SDS011;9804;52.350;6.684;2024-02-21T03:29:14;33.08;;;14.65;;
19339;SDS011;9804;52.350;6.684;2024-02-21T03:31:40;27.92;;;15.02;;
19339;SDS011;9804;52.350;6.684;2024-02-21T03:34:05;34.45;;;15.52;;
19339;SDS011;9804;52.350;6.684;2024-02-21T03:36:31;31.13;;;15.88;;
19339;SDS011;9804;52.350;6.684;2024-02-21T03:38:56;31.80;;;15.65;;
19339;SDS011;9804;52.350;6.684;2024-02-21T03:41:21;31.88;;;16.27;;
19339;SDS011;9804;52.350;6.684;2024-02-21T03:43:47;37.28;;;16.48;;
19339;SDS011;9804;52.350;6.684;2024-02-21T03:46:14;31.35;;;16.33;;
19339;SDS011;9804;52.350;6.684;2024-02-21T03:48:39;29.73;;;15.05;;
19339;SDS011;9804;52.350;6.684;2024-02-21T03:51:05;31.67;;;15.27;;
19339;SDS011;9804;52.350;6.684;2024-02-21T03:53:30;28.20;;;16.20;;
19339;SDS011;9804;52.350;6.684;2024-02-21T03:55:56;35.50;;;15.80;;
19339;SDS011;9804;52.350;6.684;2024-02-21T03:58:21;35.40;;;16.83;;
19339;SDS011;9804;52.350;6.684;2024-02-21T04:00:47;31.25;;;16.27;;
19339;SDS011;9804;52.350;6.684;2024-02-21T04:03:13;33.92;;;16.27;;
19339;SDS011;9804;52.350;6.684;2024-02-21T04:05:38;32.75;;;16.42;;
19339;SDS011;9804;52.350;6.684;2024-02-21T04:08:04;37.20;;;16.50;;
19339;SDS011;9804;52.350;6.684;2024-02-21T04:10:30;29.92;;;16.60;;
19339;SDS011;9804;52.350;6.684;2024-02-21T04:12:56;31.00;;;15.90;;
19339;SDS011;9804;52.350;6.684;2024-02-21T04:15:21;31.00;;;15.82;;
19339;SDS011;9804;52.350;6.684;2024-02-21T04:17:47;30.80;;;16.40;;
19339;SDS011;9804;52.350;6.684;2024-02-21T04:20:14;34.83;;;16.63;;
19339;SDS011;9804;52.350;6.684;2024-02-21T04:22:42;35.20;;;16.63;;
19339;SDS011;9804;52.350;6.684;2024-02-21T04:25:09;30.98;;;16.33;;
19339;SDS011;9804;52.350;6.684;2024-02-21T04:27:35;34.65;;;15.15;;
19339;SDS011;9804;52.350;6.684;2024-02-21T04:30:01;33.72;;;15.82;;
19339;SDS011;9804;52.350;6.684;2024-02-21T04:32:27;30.60;;;15.20;;
19339;SDS011;9804;52.350;6.684;2024-02-21T04:34:53;25.77;;;14.77;;
19339;SDS011;9804;52.350;6.684;2024-02-21T04:37:18;29.02;;;15.05;;
19339;SDS011;9804;52.350;6.684;2024-02-21T04:39:45;30.30;;;15.13;;
19339;SDS011;9804;52.350;6.684;2024-02-21T04:42:10;30.67;;;15.30;;
19339;SDS011;9804;52.350;6.684;2024-02-21T04:44:35;36.78;;;16.25;;
19339;SDS011;9804;52.350;6.684;2024-02-21T04:47:01;32.35;;;14.85;;
19339;SDS011;9804;52.350;6.684;2024-02-21T04:49:28;29.33;;;14.68;;
19339;SDS011;9804;52.350;6.684;2024-02-21T04:51:54;37.15;;;16.40;;
19339;SDS011;9804;52.350;6.684;2024-02-21T04:54:19;30.90;;;15.75;;
19339;SDS011;9804;52.350;6.684;2024-02-21T04:56:45;28.88;;;15.80;;
19339;SDS011;9804;52.350;6.684;2024-02-21T04:59:10;33.97;;;15.68;;
19339;SDS011;9804;52.350;6.684;2024-02-21T05:01:36;31.75;;;15.45;;
19339;SDS011;9804;52.350;6.684;2024-02-21T05:04:01;33.05;;;17.17;;
19339;SDS011;9804;52.350;6.684;2024-02-21T05:06:27;34.42;;;14.95;;
19339;SDS011;9804;52.350;6.684;2024-02-21T05:08:53;24.70;;;14.13;;
19339;SDS011;9804;52.350;6.684;2024-02-21T05:11:20;31.98;;;15.45;;
19339;SDS011;9804;52.350;6.684;2024-02-21T05:13:46;27.10;;;14.93;;
19339;SDS011;9804;52.350;6.684;2024-02-21T05:16:12;32.85;;;14.85;;
19339;SDS011;9804;52.350;6.684;2024-02-21T05:18:37;31.00;;;15.02;;
19339;SDS011;9804;52.350;6.684;2024-02-21T05:21:03;29.83;;;14.88;;
19339;SDS011;9804;52.350;6.684;2024-02-21T05:23:29;31.75;;;16.40;;
19339;SDS011;9804;52.350;6.684;2024-02-21T05:25:55;33.28;;;15.13;;
19339;SDS011;9804;52.350;6.684;2024-02-21T05:28:20;31.58;;;15.25;;
19339;SDS011;9804;52.350;6.684;2024-02-21T05:30:45;29.35;;;13.77;;
19339;SDS011;9804;52.350;6.684;2024-02-21T05:33:11;31.98;;;14.70;;
19339;SDS011;9804;52.350;6.684;2024-02-21T05:35:37;27.15;;;14.27;;
19339;SDS011;9804;52.350;6.684;2024-02-21T05:38:03;27.15;;;14.52;;
19339;SDS011;9804;52.350;6.684;2024-02-21T05:40:36;30.85;;;14.23;;
19339;SDS011;9804;52.350;6.684;2024-02-21T05:43:02;27.75;;;13.73;;
19339;SDS011;9804;52.350;6.684;2024-02-21T05:45:27;26.25;;;13.27;;
19339;SDS011;9804;52.350;6.684;2024-02-21T05:47:52;26.73;;;13.43;;
19339;SDS011;9804;52.350;6.684;2024-02-21T05:50:18;29.10;;;13.45;;
19339;SDS011;9804;52.350;6.684;2024-02-21T05:52:46;29.45;;;12.95;;
19339;SDS011;9804;52.350;6.684;2024-02-21T05:55:12;23.95;;;13.02;;
19339;SDS011;9804;52.350;6.684;2024-02-21T05:57:37;30.75;;;13.88;;
19339;SDS011;9804;52.350;6.684;2024-02-21T06:00:03;27.52;;;13.05;;
19339;SDS011;9804;52.350;6.684;2024-02-21T06:02:30;22.27;;;12.65;;
19339;SDS011;9804;52.350;6.684;2024-02-21T06:04:56;26.25;;;12.88;;
19339;SDS011;9804;52.350;6.684;2024-02-21T06:07:21;25.17;;;12.90;;
19339;SDS011;9804;52.350;6.684;2024-02-21T06:09:47;22.48;;;12.25;;
19339;SDS011;9804;52.350;6.684;2024-02-21T06:12:12;27.90;;;13.52;;
19339;SDS011;9804;52.350;6.684;2024-02-21T06:14:37;23.60;;;13.15;;
19339;SDS011;9804;52.350;6.684;2024-02-21T06:17:03;26.70;;;13.75;;
19339;SDS011;9804;52.350;6.684;2024-02-21T06:19:28;28.80;;;13.50;;
19339;SDS011;9804;52.350;6.684;2024-02-21T06:21:54;25.45;;;12.80;;
19339;SDS011;9804;52.350;6.684;2024-02-21T06:24:19;24.33;;;12.57;;
19339;SDS011;9804;52.350;6.684;2024-02-21T06:26:45;25.38;;;12.68;;
19339;SDS011;9804;52.350;6.684;2024-02-21T06:29:11;23.80;;;12.30;;
19339;SDS011;9804;52.350;6.684;2024-02-21T06:31:36;22.90;;;13.07;;
19339;SDS011;9804;52.350;6.684;2024-02-21T06:34:02;30.75;;;12.80;;
19339;SDS011;9804;52.350;6.684;2024-02-21T06:36:27;27.08;;;13.05;;
19339;SDS011;9804;52.350;6.684;2024-02-21T06:38:53;25.13;;;13.35;;
19339;SDS011;9804;52.350;6.684;2024-02-21T06:41:18;25.08;;;12.73;;
19339;SDS011;9804;52.350;6.684;2024-02-21T06:43:45;21.48;;;12.18;;
19339;SDS011;9804;52.350;6.684;2024-02-21T06:46:11;25.75;;;12.68;;
19339;SDS011;9804;52.350;6.684;2024-02-21T06:48:37;19.95;;;12.50;;
19339;SDS011;9804;52.350;6.684;2024-02-21T06:51:03;24.70;;;12.60;;
19339;SDS011;9804;52.350;6.684;2024-02-21T06:53:28;26.85;;;12.80;;
19339;SDS011;9804;52.350;6.684;2024-02-21T06:55:54;22.02;;;12.07;;
19339;SDS011;9804;52.350;6.684;2024-02-21T06:58:19;25.67;;;12.98;;
19339;SDS011;9804;52.350;6.684;2024-02-21T07:00:45;22.02;;;12.23;;
19339;SDS011;9804;52.350;6.684;2024-02-21T07:03:10;25.80;;;11.93;;
19339;SDS011;9804;52.350;6.684;2024-02-21T07:05:36;22.25;;;12.15;;
19339;SDS011;9804;52.350;6.684;2024-02-21T07:08:01;23.30;;;11.95;;
19339;SDS011;9804;52.350;6.684;2024-02-21T07:10:28;24.33;;;11.07;;
19339;SDS011;9804;52.350;6.684;2024-02-21T07:12:54;20.25;;;11.18;;
19339;SDS011;9804;52.350;6.684;2024-02-21T07:15:20;23.60;;;10.93;;
19339;SDS011;9804;52.350;6.684;2024-02-21T07:17:45;26.20;;;12.23;;
19339;SDS011;9804;52.350;6.684;2024-02-21T07:20:11;19.55;;;11.30;;
19339;SDS011;9804;52.350;6.684;2024-02-21T07:22:36;23.40;;;11.40;;
19339;SDS011;9804;52.350;6.684;2024-02-21T07:25:02;22.65;;;10.63;;
19339;SDS011;9804;52.350;6.684;2024-02-21T07:27:27;20.33;;;11.35;;
19339;SDS011;9804;52.350;6.684;2024-02-21T07:29:56;25.33;;;11.30;;
19339;SDS011;9804;52.350;6.684;2024-02-21T07:32:21;20.17;;;10.30;;
19339;SDS011;9804;52.350;6.684;2024-02-21T07:34:47;24.52;;;10.13;;
19339;SDS011;9804;52.350;6.684;2024-02-21T07:37:12;21.02;;;10.68;;
19339;SDS011;9804;52.350;6.684;2024-02-21T07:39:38;23.08;;;10.50;;
19339;SDS011;9804;52.350;6.684;2024-02-21T07:42:03;19.40;;;10.43;;
19339;SDS011;9804;52.350;6.684;2024-02-21T07:44:29;16.70;;;9.27;;
19339;SDS011;9804;52.350;6.684;2024-02-21T07:46:56;19.00;;;9.40;;
19339;SDS011;9804;52.350;6.684;2024-02-21T07:49:22;21.05;;;9.23;;
19339;SDS011;9804;52.350;6.684;2024-02-21T07:51:47;20.08;;;9.32;;
19339;SDS011;9804;52.350;6.684;2024-02-21T07:54:13;15.93;;;8.80;;
19339;SDS011;9804;52.350;6.684;2024-02-21T07:56:39;15.52;;;8.27;;
19339;SDS011;9804;52.350;6.684;2024-02-21T07:59:04;18.17;;;8.75;;
19339;SDS011;9804;52.350;6.684;2024-02-21T08:01:30;17.45;;;9.25;;
19339;SDS011;9804;52.350;6.684;2024-02-21T08:03:55;21.02;;;9.85;;
19339;SDS011;9804;52.350;6.684;2024-02-21T08:06:21;15.48;;;8.50;;
19339;SDS011;9804;52.350;6.684;2024-02-21T08:08:46;21.40;;;9.05;;
19339;SDS011;9804;52.350;6.684;2024-02-21T08:11:12;21.55;;;10.02;;
19339;SDS011;9804;52.350;6.684;2024-02-21T08:13:37;21.45;;;9.70;;
19339;SDS011;9804;52.350;6.684;2024-02-21T08:16:03;22.63;;;9.73;;
19339;SDS011;9804;52.350;6.684;2024-02-21T08:18:28;27.45;;;10.55;;
19339;SDS011;9804;52.350;6.684;2024-02-21T08:20:54;28.98;;;10.20;;
19339;SDS011;9804;52.350;6.684;2024-02-21T08:23:22;18.50;;;9.57;;
19339;SDS011;9804;52.350;6.684;2024-02-21T08:25:49;20.70;;;10.40;;
19339;SDS011;9804;52.350;6.684;2024-02-21T08:28:14;22.48;;;9.98;;
19339;SDS011;9804;52.350;6.684;2024-02-21T08:30:40;19.77;;;9.40;;
19339;SDS011;9804;52.350;6.684;2024-02-21T08:33:09;19.92;;;10.35;;
19339;SDS011;9804;52.350;6.684;2024-02-21T08:35:34;18.77;;;9.50;;
19339;SDS011;9804;52.350;6.684;2024-02-21T08:38:00;19.58;;;9.98;;
19339;SDS011;9804;52.350;6.684;2024-02-21T08:40:25;20.13;;;9.18;;
19339;SDS011;9804;52.350;6.684;2024-02-21T08:42:51;19.67;;;9.85;;
19339;SDS011;9804;52.350;6.684;2024-02-21T08:45:16;18.48;;;9.40;;
19339;SDS011;9804;52.350;6.684;2024-02-21T08:47:42;17.30;;;9.57;;
19339;SDS011;9804;52.350;6.684;2024-02-21T08:50:08;18.88;;;9.10;;
19339;SDS011;9804;52.350;6.684;2024-02-21T08:52:36;18.25;;;8.73;;
19339;SDS011;9804;52.350;6.684;2024-02-21T08:55:02;21.10;;;8.93;;
19339;SDS011;9804;52.350;6.684;2024-02-21T08:57:27;17.73;;;9.43;;
19339;SDS011;9804;52.350;6.684;2024-02-21T08:59:53;17.52;;;9.18;;
19339;SDS011;9804;52.350;6.684;2024-02-21T09:02:18;18.98;;;8.85;;
19339;SDS011;9804;52.350;6.684;2024-02-21T09:04:44;18.92;;;8.50;;
19339;SDS011;9804;52.350;6.684;2024-02-21T09:07:12;16.05;;;8.40;;
19339;SDS011;9804;52.350;6.684;2024-02-21T09:09:38;19.20;;;8.82;;
19339;SDS011;9804;52.350;6.684;2024-02-21T09:12:07;21.40;;;8.55;;
19339;SDS011;9804;52.350;6.684;2024-02-21T09:14:33;19.63;;;7.45;;
19339;SDS011;9804;52.350;6.684;2024-02-21T09:16:59;17.88;;;8.75;;
19339;SDS011;9804;52.350;6.684;2024-02-21T09:19:25;15.18;;;7.65;;
19339;SDS011;9804;52.350;6.684;2024-02-21T09:21:50;18.92;;;8.80;;
19339;SDS011;9804;52.350;6.684;2024-02-21T09:24:17;17.65;;;7.97;;
19339;SDS011;9804;52.350;6.684;2024-02-21T09:26:43;17.42;;;8.38;;
19339;SDS011;9804;52.350;6.684;2024-02-21T09:29:08;16.85;;;7.40;;
19339;SDS011;9804;52.350;6.684;2024-02-21T09:31:34;14.50;;;7.93;;
19339;SDS011;9804;52.350;6.684;2024-02-21T09:33:59;15.52;;;7.85;;
19339;SDS011;9804;52.350;6.684;2024-02-21T09:36:25;17.08;;;8.23;;
19339;SDS011;9804;52.350;6.684;2024-02-21T09:38:50;17.05;;;7.72;;
19339;SDS011;9804;52.350;6.684;2024-02-21T09:41:16;19.42;;;8.82;;
19339;SDS011;9804;52.350;6.684;2024-02-21T09:43:43;18.60;;;7.60;;
19339;SDS011;9804;52.350;6.684;2024-02-21T09:46:13;16.05;;;8.13;;
19339;SDS011;9804;52.350;6.684;2024-02-21T09:51:28;16.40;;;7.97;;
19339;SDS011;9804;52.350;6.684;2024-02-21T09:53:57;23.58;;;8.82;;
19339;SDS011;9804;52.350;6.684;2024-02-21T09:56:24;15.90;;;7.90;;
19339;SDS011;9804;52.350;6.684;2024-02-21T09:58:50;14.25;;;8.05;;
19339;SDS011;9804;52.350;6.684;2024-02-21T10:01:15;15.23;;;8.43;;
19339;SDS011;9804;52.350;6.684;2024-02-21T10:03:41;16.00;;;8.57;;
19339;SDS011;9804;52.350;6.684;2024-02-21T10:06:08;17.83;;;8.05;;
19339;SDS011;9804;52.350;6.684;2024-02-21T10:08:34;18.85;;;8.98;;
19339;SDS011;9804;52.350;6.684;2024-02-21T10:11:00;18.10;;;8.82;;
19339;SDS011;9804;52.350;6.684;2024-02-21T10:13:27;18.08;;;8.18;;
19339;SDS011;9804;52.350;6.684;2024-02-21T10:16:03;16.88;;;8.23;;
19339;SDS011;9804;52.350;6.684;2024-02-21T10:18:32;16.15;;;8.35;;
19339;SDS011;9804;52.350;6.684;2024-02-21T10:21:02;13.32;;;8.00;;
19339;SDS011;9804;52.350;6.684;2024-02-21T10:23:41;19.83;;;7.90;;
19339;SDS011;9804;52.350;6.684;2024-02-21T10:26:08;12.30;;;7.43;;
19339;SDS011;9804;52.350;6.684;2024-02-21T10:28:34;12.63;;;7.38;;
19339;SDS011;9804;52.350;6.684;2024-02-21T10:30:59;18.00;;;8.20;;
19339;SDS011;9804;52.350;6.684;2024-02-21T10:33:25;16.88;;;8.07;;
19339;SDS011;9804;52.350;6.684;2024-02-21T10:35:54;18.38;;;7.95;;
19339;SDS011;9804;52.350;6.684;2024-02-21T10:38:19;13.63;;;7.18;;
19339;SDS011;9804;52.350;6.684;2024-02-21T10:40:45;13.20;;;7.38;;
19339;SDS011;9804;52.350;6.684;2024-02-21T10:43:12;12.63;;;7.57;;
19339;SDS011;9804;52.350;6.684;2024-02-21T10:45:39;14.02;;;6.97;;
19339;SDS011;9804;52.350;6.684;2024-02-21T10:48:13;13.52;;;7.35;;
19339;SDS011;9804;52.350;6.684;2024-02-21T10:56:30;12.45;;;6.60;;
19339;SDS011;9804;52.350;6.684;2024-02-21T10:58:57;14.73;;;6.47;;
19339;SDS011;9804;52.350;6.684;2024-02-21T11:01:23;11.77;;;6.05;;
19339;SDS011;9804;52.350;6.684;2024-02-21T11:03:49;14.13;;;6.32;;
19339;SDS011;9804;52.350;6.684;2024-02-21T11:06:17;9.75;;;6.43;;
19339;SDS011;9804;52.350;6.684;2024-02-21T11:08:44;8.63;;;5.97;;
19339;SDS011;9804;52.350;6.684;2024-02-21T11:11:12;11.48;;;6.13;;
19339;SDS011;9804;52.350;6.684;2024-02-21T11:13:42;13.00;;;5.60;;
19339;SDS011;9804;52.350;6.684;2024-02-21T11:16:11;11.07;;;5.57;;
19339;SDS011;9804;52.350;6.684;2024-02-21T11:18:46;9.57;;;5.53;;
19339;SDS011;9804;52.350;6.684;2024-02-21T11:21:12;11.30;;;5.30;;
19339;SDS011;9804;52.350;6.684;2024-02-21T11:23:37;12.77;;;5.20;;
19339;SDS011;9804;52.350;6.684;2024-02-21T11:26:03;10.85;;;5.07;;
19339;SDS011;9804;52.350;6.684;2024-02-21T11:28:30;13.88;;;5.47;;
19339;SDS011;9804;52.350;6.684;2024-02-21T11:31:06;11.25;;;5.32;;
19339;SDS011;9804;52.350;6.684;2024-02-21T11:33:34;9.07;;;4.80;;
19339;SDS011;9804;52.350;6.684;2024-02-21T11:35:59;9.43;;;3.92;;
19339;SDS011;9804;52.350;6.684;2024-02-21T11:38:25;10.27;;;4.43;;
19339;SDS011;9804;52.350;6.684;2024-02-21T11:40:50;9.13;;;4.30;;
19339;SDS011;9804;52.350;6.684;2024-02-21T11:43:16;10.15;;;3.92;;
19339;SDS011;9804;52.350;6.684;2024-02-21T11:45:41;8.68;;;3.47;;
19339;SDS011;9804;52.350;6.684;2024-02-21T11:48:07;7.75;;;3.63;;
19339;SDS011;9804;52.350;6.684;2024-02-21T11:50:34;4.90;;;3.08;;
19339;SDS011;9804;52.350;6.684;2024-02-21T11:53:01;4.30;;;3.10;;
19339;SDS011;9804;52.350;6.684;2024-02-21T11:55:26;5.00;;;3.45;;
19339;SDS011;9804;52.350;6.684;2024-02-21T11:57:53;7.90;;;3.35;;
19339;SDS011;9804;52.350;6.684;2024-02-21T12:00:19;6.53;;;3.72;;
19339;SDS011;9804;52.350;6.684;2024-02-21T12:02:49;5.32;;;3.70;;
19339;SDS011;9804;52.350;6.684;2024-02-21T12:05:15;8.82;;;3.97;;
19339;SDS011;9804;52.350;6.684;2024-02-21T12:07:41;6.45;;;3.92;;
19339;SDS011;9804;52.350;6.684;2024-02-21T12:10:10;8.02;;;4.25;;
19339;SDS011;9804;52.350;6.684;2024-02-21T12:12:39;7.00;;;4.10;;
19339;SDS011;9804;52.350;6.684;2024-02-21T12:15:05;6.68;;;4.00;;
19339;SDS011;9804;52.350;6.684;2024-02-21T12:17:35;7.13;;;4.30;;
19339;SDS011;9804;52.350;6.684;2024-02-21T12:20:02;6.40;;;4.13;;
19339;SDS011;9804;52.350;6.684;2024-02-21T12:22:31;11.10;;;5.45;;
19339;SDS011;9804;52.350;6.684;2024-02-21T12:25:00;9.77;;;4.88;;
19339;SDS011;9804;52.350;6.684;2024-02-21T12:27:28;7.60;;;4.70;;
19339;SDS011;9804;52.350;6.684;2024-02-21T12:29:53;6.75;;;4.75;;
19339;SDS011;9804;52.350;6.684;2024-02-21T12:32:19;10.13;;;5.38;;
19339;SDS011;9804;52.350;6.684;2024-02-21T12:34:44;9.18;;;5.57;;
19339;SDS011;9804;52.350;6.684;2024-02-21T12:37:10;12.13;;;5.40;;
19339;SDS011;9804;52.350;6.684;2024-02-21T12:39:38;16.17;;;6.38;;
19339;SDS011;9804;52.350;6.684;2024-02-21T12:42:03;14.35;;;6.10;;
19339;SDS011;9804;52.350;6.684;2024-02-21T12:44:29;12.88;;;5.80;;
19339;SDS011;9804;52.350;6.684;2024-02-21T12:46:54;15.93;;;5.60;;
19339;SDS011;9804;52.350;6.684;2024-02-21T12:49:20;13.23;;;5.90;;
19339;SDS011;9804;52.350;6.684;2024-02-21T12:51:45;9.82;;;5.47;;
19339;SDS011;9804;52.350;6.684;2024-02-21T12:54:14;11.90;;;5.38;;
19339;SDS011;9804;52.350;6.684;2024-02-21T12:56:39;14.02;;;5.70;;
19339;SDS011;9804;52.350;6.684;2024-02-21T12:59:05;12.32;;;5.63;;
19339;SDS011;9804;52.350;6.684;2024-02-21T13:01:34;11.30;;;5.97;;
19339;SDS011;9804;52.350;6.684;2024-02-21T13:04:02;9.63;;;5.43;;
19339;SDS011;9804;52.350;6.684;2024-02-21T13:06:28;9.43;;;5.70;;
19339;SDS011;9804;52.350;6.684;2024-02-21T13:08:53;8.20;;;5.43;;
19339;SDS011;9804;52.350;6.684;2024-02-21T13:11:19;11.55;;;5.45;;
19339;SDS011;9804;52.350;6.684;2024-02-21T13:13:44;12.32;;;5.53;;
19339;SDS011;9804;52.350;6.684;2024-02-21T13:16:11;9.82;;;5.07;;
19339;SDS011;9804;52.350;6.684;2024-02-21T13:18:36;11.60;;;4.63;;
19339;SDS011;9804;52.350;6.684;2024-02-21T13:21:03;11.88;;;4.80;;
19339;SDS011;9804;52.350;6.684;2024-02-21T13:23:29;10.50;;;4.50;;
19339;SDS011;9804;52.350;6.684;2024-02-21T13:25:55;13.50;;;5.53;;
19339;SDS011;9804;52.350;6.684;2024-02-21T13:28:20;8.02;;;4.50;;
19339;SDS011;9804;52.350;6.684;2024-02-21T13:30:46;11.18;;;4.50;;
19339;SDS011;9804;52.350;6.684;2024-02-21T13:33:11;11.65;;;4.55;;
19339;SDS011;9804;52.350;6.684;2024-02-21T13:35:37;10.82;;;4.25;;
19339;SDS011;9804;52.350;6.684;2024-02-21T13:38:03;7.93;;;4.50;;
19339;SDS011;9804;52.350;6.684;2024-02-21T13:40:29;7.10;;;4.55;;
19339;SDS011;9804;52.350;6.684;2024-02-21T13:42:55;12.02;;;4.93;;
19339;SDS011;9804;52.350;6.684;2024-02-21T13:45:20;8.23;;;4.35;;
19339;SDS011;9804;52.350;6.684;2024-02-21T13:47:45;9.65;;;5.10;;
19339;SDS011;9804;52.350;6.684;2024-02-21T13:50:11;12.65;;;4.30;;
19339;SDS011;9804;52.350;6.684;2024-02-21T13:52:39;10.27;;;4.55;;
19339;SDS011;9804;52.350;6.684;2024-02-21T13:55:05;10.98;;;4.32;;
19339;SDS011;9804;52.350;6.684;2024-02-21T13:57:33;9.40;;;4.22;;
19339;SDS011;9804;52.350;6.684;2024-02-21T14:00:02;8.77;;;3.88;;
19339;SDS011;9804;52.350;6.684;2024-02-21T14:02:30;12.60;;;4.47;;
19339;SDS011;9804;52.350;6.684;2024-02-21T14:04:56;10.98;;;4.32;;
19339;SDS011;9804;52.350;6.684;2024-02-21T14:07:21;9.98;;;4.50;;
19339;SDS011;9804;52.350;6.684;2024-02-21T14:09:47;11.60;;;5.32;;
19339;SDS011;9804;52.350;6.684;2024-02-21T14:12:13;8.55;;;4.57;;
19339;SDS011;9804;52.350;6.684;2024-02-21T14:14:38;12.35;;;4.22;;
19339;SDS011;9804;52.350;6.684;2024-02-21T14:17:04;9.35;;;4.57;;
19339;SDS011;9804;52.350;6.684;2024-02-21T14:19:29;13.43;;;4.80;;
19339;SDS011;9804;52.350;6.684;2024-02-21T14:21:55;12.43;;;4.68;;
19339;SDS011;9804;52.350;6.684;2024-02-21T14:24:21;12.27;;;5.70;;
19339;SDS011;9804;52.350;6.684;2024-02-21T14:26:47;13.43;;;5.18;;
19339;SDS011;9804;52.350;6.684;2024-02-21T14:29:13;13.05;;;5.13;;
19339;SDS011;9804;52.350;6.684;2024-02-21T14:31:39;12.23;;;4.60;;
19339;SDS011;9804;52.350;6.684;2024-02-21T14:34:04;9.40;;;4.40;;
19339;SDS011;9804;52.350;6.684;2024-02-21T14:36:31;10.15;;;4.70;;
19339;SDS011;9804;52.350;6.684;2024-02-21T14:38:58;11.52;;;4.45;;
19339;SDS011;9804;52.350;6.684;2024-02-21T14:41:24;9.18;;;4.72;;
19339;SDS011;9804;52.350;6.684;2024-02-21T14:43:49;11.40;;;4.40;;